Time;durP1;ratioP1;P1;durP2;ratioP2;P2;SDS_P1;SDS_P2;PMS_P1;PMS_P2;Temp;Humidity;BMP_temperature;BMP_pressure;BME280_temperature;BME280_humidity;BME280_pressure;Samples;Min_cycle;Max_cycle;Signal;HPM_P1;HPM_P2
2022/12/10 00:00:20;;;;;;;;;;;1.70;83.50;;;;;;5093499;28;19924;-33
2022/12/10 00:02:45;;;;;;;;;;;1.70;83.60;;;;;;5093921;28;19998;-26
2022/12/10 00:05:11;;;;;;;;;;;1.70;83.60;;;;;;5093859;28;19918;-27
2022/12/10 00:07:36;;;;;;;;;;;1.70;83.60;;;;;;5093754;28;19912;-28
2022/12/10 00:10:02;;;;;;;;;;;1.70;83.60;;;;;;5093794;28;20321;-29
2022/12/10 00:12:28;;;;;;;;;;;1.70;83.60;;;;;;5093765;28;19998;-30
2022/12/10 00:14:53;;;;;;;;;;;1.70;83.60;;;;;;5093689;28;19954;-30
2022/12/10 00:17:19;;;;;;;;;;;1.60;83.60;;;;;;5092186;28;19945;-30
2022/12/10 00:19:44;;;;;;;;;;;1.60;83.60;;;;;;5093477;28;20018;-29
2022/12/10 00:22:10;;;;;;;;;;;1.60;83.70;;;;;;5093312;28;19924;-31
2022/12/10 00:24:35;;;;;;;;;;;1.60;83.60;;;;;;5093311;28;19962;-26
2022/12/10 00:27:01;;;;;;;;;;;1.60;83.60;;;;;;5093456;28;19912;-29
2022/12/10 00:29:26;;;;;;;;;;;1.60;83.60;;;;;;5091888;28;19923;-28
2022/12/10 00:31:52;;;;;;;;;;;1.60;83.60;;;;;;5093188;28;19912;-28
2022/12/10 00:34:17;;;;;;;;;;;1.50;83.50;;;;;;5093225;28;19912;-28
2022/12/10 00:36:44;;;;;;;;;;;1.50;83.60;;;;;;5093229;28;19962;-30
2022/12/10 00:39:11;;;;;;;;;;;1.50;83.70;;;;;;5093172;28;19992;-29
2022/12/10 00:41:36;;;;;;;;;;;1.50;83.70;;;;;;5092922;28;19916;-28
2022/12/10 00:44:02;;;;;;;;;;;1.50;83.70;;;;;;5091584;28;19919;-27
2022/12/10 00:46:28;;;;;;;;;;;1.50;83.70;;;;;;5092938;28;19912;-29
2022/12/10 00:48:53;;;;;;;;;;;1.40;83.70;;;;;;5091816;28;19920;-29
2022/12/10 00:51:20;;;;;;;;;;;1.40;83.70;;;;;;5092963;28;20136;-31
2022/12/10 00:53:46;;;;;;;;;;;1.40;83.60;;;;;;5092988;28;19912;-30
2022/12/10 00:56:12;;;;;;;;;;;1.40;83.70;;;;;;5092808;28;19920;-27
2022/12/10 00:58:38;;;;;;;;;;;1.40;83.80;;;;;;5092730;28;19935;-32
2022/12/10 01:01:13;;;;;;;;;;;1.40;83.80;;;;;;5091113;28;19924;-28
2022/12/10 01:03:39;;;;;;;;;;;1.40;83.80;;;;;;5092584;28;19912;-30
2022/12/10 01:06:09;;;;;;;;;;;1.40;83.80;;;;;;5092569;28;20375;-29
2022/12/10 01:08:34;;;;;;;;;;;1.40;83.80;;;;;;5092507;28;19916;-28
2022/12/10 01:11:00;;;;;;;;;;;1.40;83.80;;;;;;5092488;28;20278;-29
2022/12/10 01:13:25;;;;;;;;;;;1.40;83.70;;;;;;5092564;28;19912;-28
2022/12/10 01:15:51;;;;;;;;;;;1.40;83.70;;;;;;5092361;28;20385;-28
2022/12/10 01:18:16;;;;;;;;;;;1.40;83.70;;;;;;5092455;28;19924;-29
2022/12/10 01:20:41;;;;;;;;;;;1.40;83.80;;;;;;5092392;28;19916;-28
2022/12/10 01:23:07;;;;;;;;;;;1.40;83.70;;;;;;5092380;28;19935;-29
2022/12/10 01:25:32;;;;;;;;;;;1.40;83.70;;;;;;5092470;28;19919;-30
2022/12/10 01:27:58;;;;;;;;;;;1.40;83.70;;;;;;5092475;28;19912;-30
2022/12/10 01:30:23;;;;;;;;;;;1.30;83.80;;;;;;5091743;28;19955;-28
2022/12/10 01:32:49;;;;;;;;;;;1.30;83.90;;;;;;5092198;28;19916;-28
2022/12/10 01:35:14;;;;;;;;;;;1.30;83.90;;;;;;5092094;28;19912;-29
2022/12/10 01:37:40;;;;;;;;;;;1.30;83.80;;;;;;5092126;28;19916;-27
2022/12/10 01:40:05;;;;;;;;;;;1.30;83.90;;;;;;5092081;28;19915;-29
2022/12/10 01:42:31;;;;;;;;;;;1.30;83.90;;;;;;5092006;28;19932;-30
2022/12/10 01:44:58;;;;;;;;;;;1.30;83.80;;;;;;5091937;28;19920;-27
2022/12/10 01:47:23;;;;;;;;;;;1.30;83.90;;;;;;5091864;28;19920;-28
2022/12/10 01:49:49;;;;;;;;;;;1.30;83.90;;;;;;5092029;28;19912;-27
2022/12/10 01:52:14;;;;;;;;;;;1.30;83.90;;;;;;5091914;28;19955;-26
2022/12/10 01:54:42;;;;;;;;;;;1.30;83.90;;;;;;5091903;28;19987;-30
2022/12/10 01:57:09;;;;;;;;;;;1.30;83.90;;;;;;5091839;28;19912;-26
2022/12/10 01:59:35;;;;;;;;;;;1.30;84.50;;;;;;5091784;28;19969;-30
2022/12/10 02:02:07;;;;;;;;;;;1.30;84.40;;;;;;5091599;28;19928;-29
2022/12/10 02:04:51;;;;;;;;;;;1.30;83.80;;;;;;5091677;28;19912;-27
2022/12/10 02:07:35;;;;;;;;;;;1.30;83.80;;;;;;5091412;28;20310;-27
2022/12/10 02:10:24;;;;;;;;;;;1.30;83.80;;;;;;5089812;28;19919;-27
2022/12/10 02:12:53;;;;;;;;;;;1.30;83.80;;;;;;5090402;28;19980;-27
2022/12/10 02:15:22;;;;;;;;;;;1.20;83.70;;;;;;5091547;28;20418;-27
2022/12/10 02:17:53;;;;;;;;;;;1.20;83.80;;;;;;5091579;28;19939;-27
2022/12/10 02:20:30;;;;;;;;;;;1.20;83.80;;;;;;5091505;28;20362;-27
2022/12/10 02:23:13;;;;;;;;;;;1.10;83.80;;;;;;5091501;28;19919;-27
2022/12/10 02:25:57;;;;;;;;;;;1.10;83.90;;;;;;5091421;28;19962;-26
2022/12/10 02:28:41;;;;;;;;;;;1.10;83.90;;;;;;5091441;28;20014;-29
2022/12/10 02:31:08;;;;;;;;;;;1.10;83.90;;;;;;5091453;28;19912;-28
2022/12/10 02:33:35;;;;;;;;;;;1.10;83.90;;;;;;5091545;28;20327;-27
2022/12/10 02:36:01;;;;;;;;;;;1.10;83.90;;;;;;5091487;28;19912;-29
2022/12/10 02:38:29;;;;;;;;;;;1.10;83.90;;;;;;5091720;28;20387;-26
2022/12/10 02:41:00;;;;;;;;;;;1.10;83.90;;;;;;5090163;28;19973;-27
2022/12/10 02:43:27;;;;;;;;;;;1.00;83.90;;;;;;5093393;28;19957;-28
2022/12/10 02:45:54;;;;;;;;;;;1.00;83.90;;;;;;5095362;28;19970;-34
2022/12/10 02:48:19;;;;;;;;;;;1.00;83.90;;;;;;5095284;28;19931;-27
2022/12/10 02:50:45;;;;;;;;;;;1.00;84.00;;;;;;5095208;28;19908;-27
2022/12/10 02:53:10;;;;;;;;;;;1.00;84.00;;;;;;5095199;28;19908;-28
2022/12/10 02:55:50;;;;;;;;;;;1.00;83.90;;;;;;5095035;28;19962;-39
2022/12/10 02:58:30;;;;;;;;;;;1.00;83.90;;;;;;5093661;28;19915;-31
2022/12/10 03:01:06;;;;;;;;;;;1.00;84.00;;;;;;5094781;28;19920;-32
2022/12/10 03:03:37;;;;;;;;;;;1.00;84.00;;;;;;5094985;28;19912;-28
2022/12/10 03:06:05;;;;;;;;;;;1.00;84.00;;;;;;5094860;28;19908;-27
2022/12/10 03:08:34;;;;;;;;;;;1.00;84.10;;;;;;5094973;28;19915;-30
2022/12/10 03:11:13;;;;;;;;;;;1.00;84.10;;;;;;5094796;28;19908;-31
2022/12/10 03:13:41;;;;;;;;;;;1.00;84.10;;;;;;5093480;28;19908;-33
2022/12/10 03:16:07;;;;;;;;;;;1.00;84.00;;;;;;5094757;28;19908;-27
2022/12/10 03:18:34;;;;;;;;;;;1.00;84.00;;;;;;5094584;28;20261;-28
2022/12/10 03:21:02;;;;;;;;;;;0.90;83.90;;;;;;5094319;28;20519;-28
2022/12/10 03:23:28;;;;;;;;;;;1.00;84.00;;;;;;5094338;28;19930;-30
2022/12/10 03:25:54;;;;;;;;;;;0.90;84.00;;;;;;5094127;28;20141;-32
2022/12/10 03:28:21;;;;;;;;;;;0.90;84.00;;;;;;5094140;28;19915;-30
2022/12/10 03:30:47;;;;;;;;;;;0.90;84.00;;;;;;5094026;28;19912;-27
2022/12/10 03:33:13;;;;;;;;;;;0.90;84.00;;;;;;5094147;28;19908;-29
2022/12/10 03:35:39;;;;;;;;;;;0.90;84.00;;;;;;5094036;28;20268;-32
2022/12/10 03:38:05;;;;;;;;;;;0.90;84.00;;;;;;5093902;28;20011;-27
2022/12/10 03:40:30;;;;;;;;;;;0.90;84.10;;;;;;5093738;28;20002;-31
2022/12/10 03:42:56;;;;;;;;;;;0.90;84.10;;;;;;5093899;28;19916;-27
2022/12/10 03:45:21;;;;;;;;;;;0.90;84.20;;;;;;5092649;28;19911;-29
2022/12/10 03:47:49;;;;;;;;;;;0.90;84.10;;;;;;5093975;28;19908;-28
2022/12/10 03:50:14;;;;;;;;;;;0.90;84.10;;;;;;5093782;28;19934;-31
2022/12/10 03:52:40;;;;;;;;;;;0.90;84.10;;;;;;5093653;28;19912;-28
2022/12/10 03:55:06;;;;;;;;;;;0.90;84.10;;;;;;5093312;28;19931;-33
2022/12/10 03:57:32;;;;;;;;;;;0.90;84.00;;;;;;5093589;28;19965;-28
2022/12/10 03:59:57;;;;;;;;;;;0.90;84.00;;;;;;5093574;28;20261;-27
2022/12/10 04:02:23;;;;;;;;;;;0.80;84.10;;;;;;5093110;28;20327;-27
2022/12/10 04:04:48;;;;;;;;;;;0.80;84.10;;;;;;5093535;28;20002;-26
2022/12/10 04:07:14;;;;;;;;;;;0.80;84.20;;;;;;5092080;28;20001;-27
2022/12/10 04:09:39;;;;;;;;;;;0.80;84.20;;;;;;5093389;28;20008;-26
2022/12/10 04:12:05;;;;;;;;;;;0.80;84.20;;;;;;5093194;28;20253;-27
2022/12/10 04:17:15;;;;;;;;;;;0.90;84.20;;;;;;5093126;28;19965;-30
2022/12/10 04:19:42;;;;;;;;;;;0.90;84.20;;;;;;5093460;28;20322;-28
2022/12/10 04:27:37;;;;;;;;;;;1.00;83.80;;;;;;5093158;28;19930;-28
2022/12/10 04:30:04;;;;;;;;;;;1.10;83.90;;;;;;5092836;28;19911;-33
2022/12/10 04:32:30;;;;;;;;;;;1.10;83.80;;;;;;5093064;28;20294;-29
2022/12/10 04:34:56;;;;;;;;;;;1.10;83.80;;;;;;5092989;28;19908;-28
2022/12/10 04:37:22;;;;;;;;;;;1.20;83.70;;;;;;5092848;28;19919;-26
2022/12/10 04:39:48;;;;;;;;;;;1.10;83.50;;;;;;5092778;28;19966;-27
2022/12/10 04:42:14;;;;;;;;;;;1.10;83.50;;;;;;5092465;28;19927;-29
2022/12/10 04:44:40;;;;;;;;;;;1.10;83.60;;;;;;5092670;28;19912;-29
2022/12/10 04:47:07;;;;;;;;;;;1.10;83.60;;;;;;5092639;28;19908;-36
2022/12/10 04:49:32;;;;;;;;;;;1.10;83.70;;;;;;5091249;28;19916;-33
2022/12/10 04:51:58;;;;;;;;;;;1.10;83.70;;;;;;5092589;28;20007;-27
2022/12/10 04:54:23;;;;;;;;;;;1.10;83.70;;;;;;5092509;28;19934;-33
2022/12/10 04:56:49;;;;;;;;;;;1.10;83.70;;;;;;5092736;28;20390;-27
2022/12/10 04:59:14;;;;;;;;;;;1.20;83.70;;;;;;5092206;28;20172;-28
2022/12/10 05:01:40;;;;;;;;;;;1.20;83.70;;;;;;5092001;28;20050;-32
2022/12/10 05:04:06;;;;;;;;;;;1.20;83.60;;;;;;5092260;28;19908;-28
2022/12/10 05:06:33;;;;;;;;;;;1.20;83.70;;;;;;5090055;28;19919;-27
2022/12/10 05:08:58;;;;;;;;;;;1.20;83.60;;;;;;5092512;28;20009;-30
2022/12/10 05:11:25;;;;;;;;;;;1.20;83.70;;;;;;5092319;28;20341;-27
2022/12/10 05:13:52;;;;;;;;;;;1.20;83.60;;;;;;5092386;28;20012;-31
2022/12/10 05:16:18;;;;;;;;;;;1.30;83.70;;;;;;5092161;28;19955;-28
2022/12/10 05:18:44;;;;;;;;;;;1.20;83.70;;;;;;5092069;28;19908;-29
2022/12/10 05:21:12;;;;;;;;;;;1.30;83.70;;;;;;5091951;28;19973;-26
2022/12/10 05:23:38;;;;;;;;;;;1.20;83.60;;;;;;5091933;28;19909;-27
2022/12/10 05:26:08;;;;;;;;;;;1.20;83.60;;;;;;5091904;28;20347;-29
2022/12/10 05:28:35;;;;;;;;;;;1.30;83.70;;;;;;5092038;28;19918;-29
2022/12/10 05:31:00;;;;;;;;;;;1.30;83.70;;;;;;5090698;28;19915;-25
2022/12/10 05:33:26;;;;;;;;;;;1.30;83.60;;;;;;5091874;28;19908;-30
2022/12/10 05:35:59;;;;;;;;;;;1.30;83.60;;;;;;5091820;28;20007;-32
2022/12/10 05:38:25;;;;;;;;;;;1.30;83.60;;;;;;5091804;28;19908;-27
2022/12/10 05:40:51;;;;;;;;;;;1.30;83.50;;;;;;5091581;28;19916;-28
2022/12/10 05:43:17;;;;;;;;;;;1.20;83.50;;;;;;5091560;28;19952;-28
2022/12/10 05:45:42;;;;;;;;;;;1.20;83.70;;;;;;5090268;28;19908;-35
2022/12/10 05:48:12;;;;;;;;;;;1.20;83.70;;;;;;5091754;28;19962;-26
2022/12/10 05:50:37;;;;;;;;;;;1.20;83.70;;;;;;5091782;28;19908;-30
2022/12/10 05:53:03;;;;;;;;;;;1.20;83.70;;;;;;5091886;28;20341;-35
2022/12/10 05:55:28;;;;;;;;;;;1.20;83.80;;;;;;5091452;28;20360;-27
2022/12/10 05:57:55;;;;;;;;;;;1.20;83.80;;;;;;5091386;28;20260;-28
2022/12/10 06:00:23;;;;;;;;;;;1.20;83.80;;;;;;5091402;28;19908;-34
2022/12/10 06:02:51;;;;;;;;;;;1.20;84.40;;;;;;5091464;28;19988;-27
2022/12/10 06:05:17;;;;;;;;;;;1.20;83.80;;;;;;5091296;28;19908;-29
2022/12/10 06:07:42;;;;;;;;;;;1.20;83.80;;;;;;5091500;28;20356;-34
2022/12/10 06:10:08;;;;;;;;;;;1.20;83.80;;;;;;5091319;28;20364;-33
2022/12/10 06:12:33;;;;;;;;;;;1.20;83.70;;;;;;5091358;28;19913;-39
2022/12/10 06:14:59;;;;;;;;;;;1.20;83.70;;;;;;5091392;28;20365;-31
2022/12/10 06:17:24;;;;;;;;;;;1.20;83.60;;;;;;5092964;28;19962;-28
2022/12/10 06:19:50;;;;;;;;;;;1.10;83.70;;;;;;5095460;28;20380;-27
2022/12/10 06:22:15;;;;;;;;;;;1.10;83.90;;;;;;5095461;28;20320;-32
2022/12/10 06:24:41;;;;;;;;;;;1.00;83.90;;;;;;5096016;28;20444;-34
2022/12/10 06:27:07;;;;;;;;;;;1.00;84.00;;;;;;5095767;28;19908;-47
2022/12/10 06:29:32;;;;;;;;;;;1.00;84.00;;;;;;5094302;28;19908;-28
2022/12/10 06:31:57;;;;;;;;;;;1.10;84.10;;;;;;5095612;28;19962;-30
2022/12/10 06:34:23;;;;;;;;;;;1.10;84.00;;;;;;5095663;28;19912;-29
2022/12/10 06:36:48;;;;;;;;;;;1.00;83.90;;;;;;5095589;28;19916;-28
2022/12/10 06:39:14;;;;;;;;;;;1.00;83.80;;;;;;5095566;28;19908;-30
2022/12/10 06:41:43;;;;;;;;;;;0.90;83.90;;;;;;5095292;28;19922;-28
2022/12/10 06:44:09;;;;;;;;;;;0.90;84.10;;;;;;5095575;28;19962;-27
2022/12/10 06:46:35;;;;;;;;;;;0.90;84.10;;;;;;5095354;28;19908;-31
2022/12/10 06:49:00;;;;;;;;;;;0.90;84.20;;;;;;5096109;28;19908;-29
2022/12/10 06:51:26;;;;;;;;;;;0.90;84.00;;;;;;5095312;28;19920;-39
2022/12/10 06:53:51;;;;;;;;;;;0.70;83.90;;;;;;5095773;28;19908;-27
2022/12/10 06:56:17;;;;;;;;;;;0.60;84.00;;;;;;5095159;28;20009;-31
2022/12/10 06:58:43;;;;;;;;;;;0.60;84.20;;;;;;5095277;28;20386;-31
2022/12/10 07:01:10;;;;;;;;;;;0.50;84.30;;;;;;5095028;28;19921;-29
2022/12/10 07:03:36;;;;;;;;;;;0.60;84.50;;;;;;5095121;28;19912;-29
2022/12/10 07:06:03;;;;;;;;;;;0.60;84.40;;;;;;5095069;28;19970;-29
2022/12/10 07:08:28;;;;;;;;;;;0.60;84.40;;;;;;5093709;28;19915;-29
2022/12/10 07:10:54;;;;;;;;;;;0.60;84.50;;;;;;5094935;28;19912;-32
2022/12/10 07:13:20;;;;;;;;;;;0.60;84.50;;;;;;5094913;28;20444;-29
2022/12/10 07:15:45;;;;;;;;;;;0.50;84.20;;;;;;5094889;28;19956;-33
2022/12/10 07:18:11;;;;;;;;;;;0.40;84.30;;;;;;5094868;28;19908;-29
2022/12/10 07:20:36;;;;;;;;;;;0.30;84.30;;;;;;5093580;28;20031;-29
2022/12/10 07:23:02;;;;;;;;;;;0.20;84.50;;;;;;5094984;28;20173;-33
2022/12/10 07:25:27;;;;;;;;;;;0.20;84.80;;;;;;5094723;28;20289;-28
2022/12/10 07:27:53;;;;;;;;;;;0.30;84.90;;;;;;5094648;28;19915;-29
2022/12/10 07:30:18;;;;;;;;;;;0.30;84.90;;;;;;5094086;28;19994;-29
2022/12/10 07:32:44;;;;;;;;;;;0.40;84.80;;;;;;5094600;28;19908;-31
2022/12/10 07:35:09;;;;;;;;;;;0.40;84.70;;;;;;5094523;28;20379;-31
2022/12/10 07:37:35;;;;;;;;;;;0.40;84.80;;;;;;5094471;28;20072;-29
2022/12/10 07:40:00;;;;;;;;;;;0.40;84.70;;;;;;5093047;28;20356;-29
2022/12/10 07:42:26;;;;;;;;;;;0.40;84.70;;;;;;5094271;28;19912;-36
2022/12/10 07:44:51;;;;;;;;;;;0.50;84.80;;;;;;5094338;28;19915;-32
2022/12/10 07:47:17;;;;;;;;;;;0.60;84.80;;;;;;5094107;28;20287;-32
2022/12/10 07:49:42;;;;;;;;;;;0.60;84.70;;;;;;5094280;28;19962;-38
2022/12/10 07:52:08;;;;;;;;;;;0.70;84.70;;;;;;5092753;28;19999;-33
2022/12/10 07:54:34;;;;;;;;;;;0.70;84.70;;;;;;5094109;28;20007;-32
2022/12/10 07:56:59;;;;;;;;;;;0.80;84.60;;;;;;5094091;28;19934;-32
2022/12/10 07:59:24;;;;;;;;;;;0.80;84.60;;;;;;5094349;28;19909;-33
2022/12/10 08:01:50;;;;;;;;;;;0.90;84.60;;;;;;5093663;28;19927;-29
2022/12/10 08:04:15;;;;;;;;;;;0.90;84.40;;;;;;5093859;28;20343;-36
2022/12/10 08:06:41;;;;;;;;;;;0.90;84.30;;;;;;5092599;28;19908;-30
2022/12/10 08:09:06;;;;;;;;;;;0.90;84.30;;;;;;5093905;28;19908;-30
2022/12/10 08:11:32;;;;;;;;;;;1.00;84.40;;;;;;5093736;28;20287;-31
2022/12/10 08:13:58;;;;;;;;;;;0.90;84.20;;;;;;5093717;28;19908;-29
2022/12/10 08:16:27;;;;;;;;;;;0.90;84.30;;;;;;5093970;28;20000;-33
2022/12/10 08:18:53;;;;;;;;;;;1.00;84.40;;;;;;5093878;28;20220;-31
2022/12/10 08:21:20;;;;;;;;;;;1.00;84.70;;;;;;5093601;28;19912;-31
2022/12/10 08:23:46;;;;;;;;;;;1.00;84.40;;;;;;5093660;28;19908;-29
2022/12/10 08:26:19;;;;;;;;;;;1.00;84.40;;;;;;5093522;28;19916;-31
2022/12/10 08:28:46;;;;;;;;;;;1.10;84.30;;;;;;5093526;28;19908;-34
2022/12/10 08:31:12;;;;;;;;;;;1.10;84.30;;;;;;5093749;28;19964;-30
2022/12/10 08:33:38;;;;;;;;;;;1.20;84.40;;;;;;5093281;28;20275;-30
2022/12/10 08:36:04;;;;;;;;;;;1.20;84.40;;;;;;5093298;28;20314;-29
2022/12/10 08:38:30;;;;;;;;;;;1.20;84.20;;;;;;5093207;28;20383;-28
2022/12/10 08:40:56;;;;;;;;;;;1.20;84.80;;;;;;5092187;28;19912;-31
2022/12/10 08:43:21;;;;;;;;;;;1.30;84.20;;;;;;5093272;28;19931;-34
2022/12/10 08:45:47;;;;;;;;;;;1.30;84.20;;;;;;5093193;28;19909;-29
2022/12/10 08:48:12;;;;;;;;;;;1.30;84.20;;;;;;5093230;28;19955;-32
2022/12/10 08:50:38;;;;;;;;;;;1.30;84.20;;;;;;5093092;28;19915;-31
2022/12/10 08:53:03;;;;;;;;;;;1.30;84.20;;;;;;5092978;28;19912;-29
2022/12/10 08:55:29;;;;;;;;;;;1.30;84.10;;;;;;5092883;28;20010;-29
2022/12/10 08:57:55;;;;;;;;;;;1.30;84.10;;;;;;5093027;28;19915;-32
2022/12/10 09:00:21;;;;;;;;;;;1.30;84.10;;;;;;5092752;28;19916;-29
2022/12/10 09:02:46;;;;;;;;;;;1.20;84.20;;;;;;5093033;28;19909;-34
2022/12/10 09:05:12;;;;;;;;;;;1.20;84.30;;;;;;5092931;28;19908;-35
2022/12/10 09:07:38;;;;;;;;;;;1.20;84.40;;;;;;5092870;28;19915;-35
2022/12/10 09:10:04;;;;;;;;;;;1.20;84.40;;;;;;5092947;28;19912;-34
2022/12/10 09:12:29;;;;;;;;;;;1.20;84.50;;;;;;5092872;28;19910;-29
2022/12/10 09:14:55;;;;;;;;;;;1.20;84.60;;;;;;5092890;28;19958;-31
2022/12/10 09:17:21;;;;;;;;;;;1.20;84.60;;;;;;5092669;28;19909;-29
2022/12/10 09:19:47;;;;;;;;;;;1.20;84.40;;;;;;5092770;28;20272;-34
2022/12/10 09:22:13;;;;;;;;;;;1.20;84.40;;;;;;5092567;28;19916;-34
2022/12/10 09:24:38;;;;;;;;;;;1.10;84.50;;;;;;5092621;28;20346;-36
2022/12/10 09:27:03;;;;;;;;;;;1.10;84.50;;;;;;5092630;28;20014;-30
2022/12/10 09:29:29;;;;;;;;;;;1.20;84.70;;;;;;5092464;28;20374;-32
2022/12/10 09:31:55;;;;;;;;;;;1.20;84.60;;;;;;5092251;28;19958;-31
2022/12/10 09:34:20;;;;;;;;;;;1.20;84.60;;;;;;5092341;28;19908;-30
2022/12/10 09:36:46;;;;;;;;;;;1.20;84.70;;;;;;5092258;28;19966;-31
2022/12/10 09:39:12;;;;;;;;;;;1.20;84.70;;;;;;5092360;28;19915;-29
2022/12/10 09:41:46;;;;;;;;;;;1.30;84.70;;;;;;5092052;28;19912;-35
2022/12/10 09:44:30;;;;;;;;;;;1.30;84.60;;;;;;5092128;28;19908;-32
2022/12/10 09:46:57;;;;;;;;;;;1.30;84.50;;;;;;5092075;28;20342;-30
2022/12/10 09:49:25;;;;;;;;;;;1.30;84.50;;;;;;5092131;28;19961;-34
2022/12/10 09:51:54;;;;;;;;;;;1.30;84.60;;;;;;5091937;28;19908;-33
2022/12/10 09:54:27;;;;;;;;;;;1.30;84.80;;;;;;5092038;28;19930;-31
2022/12/10 09:56:54;;;;;;;;;;;1.30;84.80;;;;;;5092413;28;20002;-31
2022/12/10 09:59:22;;;;;;;;;;;1.40;84.80;;;;;;5091949;28;19908;-30
2022/12/10 10:01:50;;;;;;;;;;;1.40;84.90;;;;;;5091716;28;20455;-31
2022/12/10 10:04:17;;;;;;;;;;;1.40;84.80;;;;;;5091144;28;20302;-32
2022/12/10 10:06:43;;;;;;;;;;;1.50;84.80;;;;;;5091926;28;19947;-29
2022/12/10 10:09:12;;;;;;;;;;;1.50;84.80;;;;;;5092077;28;19919;-33
2022/12/10 10:11:37;;;;;;;;;;;1.50;84.80;;;;;;5091795;28;19928;-34
2022/12/10 10:14:24;;;;;;;;;;;1.60;84.80;;;;;;5091747;28;20302;-32
2022/12/10 10:17:09;;;;;;;;;;;1.60;84.60;;;;;;5091883;28;19913;-32
2022/12/10 10:19:38;;;;;;;;;;;1.50;84.70;;;;;;5091188;28;19912;-34
2022/12/10 10:22:04;;;;;;;;;;;1.50;84.70;;;;;;5091877;28;19920;-31
2022/12/10 10:24:40;;;;;;;;;;;1.60;84.90;;;;;;5091557;28;20395;-31
2022/12/10 10:27:12;;;;;;;;;;;1.60;84.80;;;;;;5091593;28;19912;-32
2022/12/10 10:29:37;;;;;;;;;;;1.60;84.80;;;;;;5091539;28;19912;-31
2022/12/10 10:32:12;;;;;;;;;;;1.70;84.90;;;;;;5091460;28;20106;-31
2022/12/10 10:34:39;;;;;;;;;;;1.70;84.90;;;;;;5091805;28;19912;-33
2022/12/10 10:37:04;;;;;;;;;;;1.70;84.80;;;;;;5091442;28;20367;-33
2022/12/10 10:39:31;;;;;;;;;;;1.70;84.80;;;;;;5091251;28;19919;-30
2022/12/10 10:41:57;;;;;;;;;;;1.80;84.80;;;;;;5091287;28;19941;-29
2022/12/10 10:44:24;;;;;;;;;;;1.90;85.50;;;;;;5091044;28;19912;-30
2022/12/10 10:46:51;;;;;;;;;;;1.90;84.80;;;;;;5091180;28;20010;-31
2022/12/10 10:49:27;;;;;;;;;;;1.90;84.70;;;;;;5091324;28;19912;-32
2022/12/10 10:51:57;;;;;;;;;;;1.90;84.60;;;;;;5089870;28;19970;-30
2022/12/10 10:54:34;;;;;;;;;;;2.00;84.60;;;;;;5091067;28;19912;-34
2022/12/10 10:57:04;;;;;;;;;;;1.90;84.70;;;;;;5091473;28;19912;-34
2022/12/10 10:59:34;;;;;;;;;;;1.90;84.70;;;;;;5091559;28;19973;-28
2022/12/10 11:02:12;;;;;;;;;;;1.90;84.70;;;;;;5090757;28;19920;-33
2022/12/10 11:04:45;;;;;;;;;;;1.90;84.70;;;;;;5093345;28;20411;-35
2022/12/10 11:07:16;;;;;;;;;;;1.90;84.70;;;;;;5095339;28;20397;-29
2022/12/10 11:09:43;;;;;;;;;;;1.90;84.80;;;;;;5095200;28;20287;-32
2022/12/10 11:12:28;;;;;;;;;;;2.00;84.80;;;;;;5095212;28;19981;-30
2022/12/10 11:14:54;;;;;;;;;;;2.00;84.80;;;;;;5094958;28;19912;-33
2022/12/10 11:17:21;;;;;;;;;;;2.00;84.60;;;;;;5094833;28;20362;-32
2022/12/10 11:19:58;;;;;;;;;;;2.00;84.80;;;;;;5094612;28;19912;-33
2022/12/10 11:22:29;;;;;;;;;;;2.00;84.80;;;;;;5094681;28;20010;-32
2022/12/10 11:24:55;;;;;;;;;;;2.00;84.70;;;;;;5095045;28;20278;-29
2022/12/10 11:27:39;;;;;;;;;;;2.10;84.90;;;;;;5094901;28;19912;-30
2022/12/10 11:30:09;;;;;;;;;;;2.10;84.80;;;;;;5094497;28;20010;-29
2022/12/10 11:32:34;;;;;;;;;;;2.10;84.50;;;;;;5094621;28;20462;-28
2022/12/10 11:35:10;;;;;;;;;;;2.10;84.50;;;;;;5094709;28;19912;-33
2022/12/10 11:37:36;;;;;;;;;;;2.00;84.60;;;;;;5094487;28;19934;-32
2022/12/10 11:40:02;;;;;;;;;;;2.10;84.80;;;;;;5094356;28;19912;-28
2022/12/10 11:42:38;;;;;;;;;;;2.10;84.80;;;;;;5092937;28;19999;-34
2022/12/10 11:45:17;;;;;;;;;;;2.20;84.80;;;;;;5094501;28;19990;-34
2022/12/10 11:47:46;;;;;;;;;;;2.20;84.70;;;;;;5094372;28;19912;-29
2022/12/10 11:50:23;;;;;;;;;;;2.20;84.70;;;;;;5094720;28;19963;-30
2022/12/10 11:52:49;;;;;;;;;;;2.20;84.70;;;;;;5094216;28;19912;-32
2022/12/10 11:55:31;;;;;;;;;;;2.30;84.60;;;;;;5093891;28;19973;-31
2022/12/10 11:58:16;;;;;;;;;;;2.30;84.60;;;;;;5093898;28;19989;-36
2022/12/10 12:00:46;;;;;;;;;;;2.30;84.60;;;;;;5093802;28;20002;-32
2022/12/10 12:03:30;;;;;;;;;;;2.30;84.50;;;;;;5094330;28;20256;-32
2022/12/10 12:06:15;;;;;;;;;;;2.30;84.60;;;;;;5093752;28;20308;-32
2022/12/10 12:08:43;;;;;;;;;;;2.30;84.50;;;;;;5093657;28;19912;-34
2022/12/10 12:11:14;;;;;;;;;;;2.20;84.40;;;;;;5093694;28;19912;-33
2022/12/10 12:13:59;;;;;;;;;;;2.20;84.50;;;;;;5093693;28;19915;-31
2022/12/10 12:16:33;;;;;;;;;;;2.10;84.60;;;;;;5093680;28;19997;-37
2022/12/10 12:19:05;;;;;;;;;;;2.10;84.70;;;;;;5093677;28;19963;-31
2022/12/10 12:21:30;;;;;;;;;;;2.10;84.70;;;;;;5093466;28;19916;-33
2022/12/10 12:23:56;;;;;;;;;;;2.10;84.70;;;;;;5093632;28;20268;-30
2022/12/10 12:26:25;;;;;;;;;;;2.10;84.70;;;;;;5093272;28;19919;-29
2022/12/10 12:29:03;;;;;;;;;;;2.10;84.70;;;;;;5093646;28;19912;-29
2022/12/10 12:31:33;;;;;;;;;;;2.10;84.80;;;;;;5093282;28;19912;-31
2022/12/10 12:34:18;;;;;;;;;;;2.10;84.90;;;;;;5093368;28;19966;-29
2022/12/10 12:36:44;;;;;;;;;;;2.10;84.90;;;;;;5093468;28;19916;-31
2022/12/10 12:39:19;;;;;;;;;;;2.10;84.80;;;;;;5093121;28;19912;-30
2022/12/10 12:41:47;;;;;;;;;;;2.10;84.80;;;;;;5093319;28;20393;-32
2022/12/10 12:44:17;;;;;;;;;;;2.10;84.70;;;;;;5093028;28;19912;-36
2022/12/10 12:46:43;;;;;;;;;;;2.00;84.60;;;;;;5093124;28;19961;-33
2022/12/10 12:49:21;;;;;;;;;;;2.00;84.90;;;;;;5093015;28;19926;-30
2022/12/10 12:52:07;;;;;;;;;;;2.00;84.90;;;;;;5093230;28;19912;-30
2022/12/10 12:54:33;;;;;;;;;;;2.00;84.80;;;;;;5060629;28;19934;-31
2022/12/10 12:57:04;;;;;;;;;;;2.00;85.00;;;;;;5092978;28;20006;-31
2022/12/10 12:59:34;;;;;;;;;;;2.00;85.00;;;;;;5092896;28;20368;-32
2022/12/10 13:02:18;;;;;;;;;;;1.90;84.90;;;;;;5092348;28;19920;-35
2022/12/10 13:04:44;;;;;;;;;;;2.00;85.10;;;;;;5092962;28;20396;-31
2022/12/10 13:07:09;;;;;;;;;;;2.10;85.10;;;;;;5093091;28;20002;-37
2022/12/10 13:09:42;;;;;;;;;;;2.10;85.10;;;;;;5091513;28;19912;-30
2022/12/10 13:12:14;;;;;;;;;;;2.10;84.90;;;;;;5092795;28;19969;-31
2022/12/10 13:15:02;;;;;;;;;;;2.20;84.90;;;;;;5092903;28;19916;-33
2022/12/10 13:17:37;;;;;;;;;;;2.20;85.00;;;;;;5086779;28;19912;-30
2022/12/10 13:20:22;;;;;;;;;;;2.20;84.90;;;;;;5092485;28;19947;-29
2022/12/10 13:22:55;;;;;;;;;;;2.20;84.80;;;;;;5084879;28;20395;-33
2022/12/10 13:25:37;;;;;;;;;;;2.20;84.90;;;;;;5092359;28;19919;-36
2022/12/10 13:28:16;;;;;;;;;;;2.10;84.80;;;;;;5092074;28;19912;-28
2022/12/10 13:30:42;;;;;;;;;;;2.00;84.90;;;;;;5092624;28;19912;-39
2022/12/10 13:33:15;;;;;;;;;;;2.00;85.10;;;;;;5092703;28;19998;-30
2022/12/10 13:35:43;;;;;;;;;;;2.00;85.20;;;;;;5092260;28;19912;-33
2022/12/10 13:38:19;;;;;;;;;;;2.00;85.20;;;;;;5092847;28;19912;-32
2022/12/10 13:46:31;;;;;;;;;;;2.10;85.20;;;;;;5092671;28;20005;-33
2022/12/10 13:49:01;;;;;;;;;;;2.10;85.20;;;;;;5092332;28;19912;-34
2022/12/10 13:51:29;;;;;;;;;;;2.20;85.20;;;;;;5092411;28;20417;-32
2022/12/10 13:54:08;;;;;;;;;;;2.20;85.10;;;;;;5092570;28;19919;-30
2022/12/10 13:56:41;;;;;;;;;;;2.20;85.10;;;;;;5092235;28;19919;-33
2022/12/10 13:59:26;;;;;;;;;;;2.20;85.10;;;;;;5092251;28;19935;-29
2022/12/10 14:01:52;;;;;;;;;;;2.20;85.10;;;;;;5092028;28;19963;-35
2022/12/10 14:04:30;;;;;;;;;;;2.20;85.20;;;;;;5092021;28;19919;-30
2022/12/10 14:06:55;;;;;;;;;;;2.20;85.20;;;;;;5092302;28;20007;-39
2022/12/10 14:09:29;;;;;;;;;;;2.30;85.30;;;;;;5092140;28;19963;-30
2022/12/10 14:11:57;;;;;;;;;;;2.30;85.20;;;;;;5091894;28;20006;-29
2022/12/10 14:14:30;;;;;;;;;;;2.30;85.00;;;;;;5091751;28;19977;-29
2022/12/10 14:16:55;;;;;;;;;;;2.20;85.00;;;;;;5091727;28;20391;-30
2022/12/10 14:19:24;;;;;;;;;;;2.20;85.00;;;;;;5092216;28;19963;-34
2022/12/10 14:21:50;;;;;;;;;;;2.10;85.10;;;;;;5091660;28;19916;-28
2022/12/10 14:24:25;;;;;;;;;;;2.10;85.30;;;;;;5091716;28;20371;-30
2022/12/10 14:26:55;;;;;;;;;;;2.10;85.30;;;;;;5091592;28;19924;-32
2022/12/10 14:29:21;;;;;;;;;;;2.00;85.20;;;;;;5091920;28;19913;-32
2022/12/10 14:31:48;;;;;;;;;;;2.00;85.30;;;;;;5091725;28;19912;-30
2022/12/10 14:34:15;;;;;;;;;;;2.00;85.50;;;;;;5091900;28;19939;-34
2022/12/10 14:36:45;;;;;;;;;;;2.00;85.50;;;;;;5091682;28;20343;-31
2022/12/10 14:39:18;;;;;;;;;;;2.00;85.60;;;;;;5094871;28;20295;-35
2022/12/10 14:41:45;;;;;;;;;;;2.00;85.50;;;;;;5095662;28;19920;-33
2022/12/10 14:44:15;;;;;;;;;;;2.10;85.50;;;;;;5095893;28;19977;-32
2022/12/10 14:46:40;;;;;;;;;;;2.10;85.50;;;;;;5095837;28;20213;-30
2022/12/10 14:49:08;;;;;;;;;;;2.10;85.50;;;;;;5094294;28;19980;-33
2022/12/10 14:51:36;;;;;;;;;;;2.20;85.50;;;;;;5095455;28;19916;-33